Time;durP1;ratioP1;P1;durP2;ratioP2;P2;SDS_P1;SDS_P2;PMS_P1;PMS_P2;Temp;Humidity;BMP_temperature;BMP_pressure;BME280_temperature;BME280_humidity;BME280_pressure;Samples;Min_cycle;Max_cycle;Signal;HPM_P1;HPM_P2
2022/05/03 00:02:29;;;;;;;4.80;3.50;;;15.60;99.90;;;;;;5016957;28;20442;-93
2022/05/03 00:05:03;;;;;;;8.17;4.23;;;15.60;99.90;;;;;;5034610;28;20393;-92
2022/05/03 00:08:03;;;;;;;5.03;4.50;;;15.60;99.90;;;;;;5016678;28;20947;-89
2022/05/03 00:10:35;;;;;;;5.97;4.50;;;15.70;99.90;;;;;;5036077;28;20468;-87
2022/05/03 00:13:08;;;;;;;5.50;4.80;;;15.70;99.90;;;;;;5049495;28;20538;-87
2022/05/03 00:15:38;;;;;;;5.97;4.60;;;15.70;99.90;;;;;;5035039;28;20495;-91
2022/05/03 00:18:06;;;;;;;5.30;4.27;;;15.80;99.90;;;;;;5035716;28;20440;-89
2022/05/03 00:20:33;;;;;;;7.20;5.43;;;15.80;99.90;;;;;;5051700;28;20448;-92
2022/05/03 00:23:00;;;;;;;8.10;4.67;;;15.90;99.90;;;;;;5059838;28;20447;-93
2022/05/03 00:25:29;;;;;;;4.17;3.73;;;15.90;99.90;;;;;;5035865;28;20400;-93
2022/05/03 00:27:55;;;;;;;5.80;4.70;;;15.90;99.90;;;;;;5050604;28;20458;-89
2022/05/03 00:30:21;;;;;;;5.07;4.30;;;15.90;99.90;;;;;;5033514;28;20415;-92
2022/05/03 00:32:51;;;;;;;6.90;5.27;;;15.90;99.90;;;;;;5033536;28;20439;-93
2022/05/03 00:35:18;;;;;;;6.03;4.57;;;15.90;99.90;;;;;;5034177;28;20511;-93
2022/05/03 00:37:44;;;;;;;4.90;3.97;;;15.90;99.90;;;;;;5034471;28;20457;-89
2022/05/03 00:40:11;;;;;;;5.30;4.80;;;15.90;99.90;;;;;;5034111;28;20422;-91
2022/05/03 00:42:55;;;;;;;6.10;5.33;;;15.90;99.90;;;;;;5033747;28;20309;-87
2022/05/03 00:45:56;;;;;;;5.13;4.40;;;15.80;99.90;;;;;;5033576;28;20773;-88
2022/05/03 00:48:54;;;;;;;8.80;4.50;;;15.80;99.90;;;;;;5034909;28;20486;-93
2022/05/03 00:51:37;;;;;;;6.50;4.67;;;15.80;99.90;;;;;;5036303;28;20429;-89
2022/05/03 00:54:09;;;;;;;5.70;4.60;;;15.80;99.90;;;;;;5034080;28;21046;-93
2022/05/03 00:57:08;;;;;;;4.90;4.37;;;15.80;99.90;;;;;;5033999;28;20476;-88
2022/05/03 00:59:58;;;;;;;6.23;4.50;;;15.80;99.90;;;;;;5033996;28;20442;-88
2022/05/03 01:02:33;;;;;;;5.67;4.63;;;15.80;99.90;;;;;;5052327;28;20446;-93
2022/05/03 01:05:10;;;;;;;6.00;5.00;;;15.80;99.90;;;;;;5034297;28;20413;-92
2022/05/03 01:07:40;;;;;;;5.53;4.83;;;15.80;99.90;;;;;;5033933;28;20789;-92
2022/05/03 01:10:32;;;;;;;6.17;5.13;;;15.80;99.90;;;;;;5034769;28;20454;-93
2022/05/03 01:13:13;;;;;;;5.50;4.20;;;15.80;99.90;;;;;;5034730;28;20459;-93
2022/05/03 01:15:44;;;;;;;9.77;4.60;;;15.80;99.90;;;;;;5034671;28;20506;-87
2022/05/03 01:18:26;;;;;;;5.17;4.37;;;15.80;99.90;;;;;;5052804;28;20477;-93
2022/05/03 01:21:07;;;;;;;6.40;4.70;;;15.70;99.90;;;;;;5034556;28;20929;-88
2022/05/03 01:23:52;;;;;;;8.73;5.20;;;15.70;99.90;;;;;;5051708;28;20447;-88
2022/05/03 01:26:36;;;;;;;7.13;5.87;;;15.70;99.90;;;;;;5029894;28;20419;-88
2022/05/03 01:29:24;;;;;;;6.23;5.63;;;15.70;99.90;;;;;;5019531;28;20595;-87
2022/05/03 01:31:59;;;;;;;7.67;4.83;;;15.70;99.90;;;;;;5035888;28;20797;-88
2022/05/03 01:34:27;;;;;;;7.00;4.53;;;15.60;99.90;;;;;;5035445;28;20989;-93
2022/05/03 01:37:24;;;;;;;6.13;5.27;;;15.60;99.90;;;;;;5018611;28;20442;-88
2022/05/03 01:40:54;;;;;;;6.00;4.90;;;15.50;99.90;;;;;;5018500;28;20527;-88
2022/05/03 01:43:41;;;;;;;6.10;5.00;;;15.50;99.90;;;;;;4941772;28;20534;-90
2022/05/03 01:46:18;;;;;;;8.57;5.17;;;15.50;99.90;;;;;;4956077;29;20888;-89
2022/05/03 01:52:31;;;;;;;5.90;4.53;;;15.40;99.90;;;;;;5034031;28;20423;-92
2022/05/03 01:55:12;;;;;;;6.20;4.90;;;15.40;99.90;;;;;;5035261;28;20459;-92
2022/05/03 01:57:44;;;;;;;7.70;4.87;;;15.40;99.90;;;;;;5016339;28;21007;-93
2022/05/03 02:00:11;;;;;;;7.57;5.30;;;15.30;99.90;;;;;;5023704;28;20933;-90
2022/05/03 02:03:01;;;;;;;6.73;4.80;;;15.40;99.90;;;;;;5019782;28;20428;-89
2022/05/03 02:05:54;;;;;;;7.00;5.47;;;15.30;99.90;;;;;;5016188;28;20444;-92
2022/05/03 02:08:29;;;;;;;7.67;5.33;;;15.30;99.90;;;;;;5016218;28;20504;-88
2022/05/03 02:11:11;;;;;;;5.50;4.70;;;15.20;99.90;;;;;;5033381;28;20458;-92
2022/05/03 02:16:54;;;;;;;6.73;4.70;;;15.20;99.90;;;;;;5033545;28;20427;-92
2022/05/03 02:19:57;;;;;;;4.63;4.20;;;15.20;99.90;;;;;;5002445;28;20440;-88
2022/05/03 02:22:55;;;;;;;8.00;4.80;;;15.20;99.90;;;;;;5049750;28;20500;-92
2022/05/03 02:25:54;;;;;;;5.40;4.80;;;15.20;99.90;;;;;;5049108;28;20917;-88
2022/05/03 02:28:34;;;;;;;6.20;4.93;;;15.20;99.90;;;;;;4996805;28;20547;-89
2022/05/03 02:31:04;;;;;;;5.30;4.77;;;15.20;99.90;;;;;;4996513;28;20412;-89
2022/05/03 02:33:38;;;;;;;6.20;4.77;;;15.10;99.90;;;;;;5013954;28;20447;-93
2022/05/03 02:36:12;;;;;;;7.50;5.30;;;15.10;99.90;;;;;;4996691;28;20472;-93
2022/05/03 02:38:51;;;;;;;6.17;5.57;;;15.10;99.90;;;;;;5015420;28;20443;-89
2022/05/03 02:41:19;;;;;;;5.73;5.20;;;15.10;99.90;;;;;;4997376;28;20775;-88
2022/05/03 02:43:47;;;;;;;6.50;5.27;;;15.00;99.90;;;;;;4998754;28;20537;-89
2022/05/03 02:46:30;;;;;;;5.50;4.90;;;15.00;99.90;;;;;;4997937;28;20424;-89
2022/05/03 02:49:04;;;;;;;6.20;5.10;;;15.00;99.90;;;;;;4998494;28;20433;-89
2022/05/03 02:52:19;;;;;;;6.63;4.90;;;15.00;99.90;;;;;;4998932;28;20424;-93
2022/05/03 02:54:53;;;;;;;6.27;4.60;;;14.90;99.90;;;;;;5014360;28;20563;-88
2022/05/03 02:57:37;;;;;;;6.07;4.80;;;14.90;99.90;;;;;;4995943;28;20447;-89
2022/05/03 03:03:31;;;;;;;7.23;5.60;;;14.90;99.90;;;;;;5013370;28;20472;-93
2022/05/03 03:05:59;;;;;;;7.83;5.80;;;14.90;99.90;;;;;;4995386;28;20417;-89
2022/05/03 03:08:28;;;;;;;5.97;5.20;;;14.90;99.90;;;;;;4995837;28;20455;-89
2022/05/03 03:11:07;;;;;;;8.10;4.97;;;14.90;99.90;;;;;;5035975;28;20877;-88
2022/05/03 03:13:54;;;;;;;5.60;5.00;;;14.90;99.90;;;;;;5097173;28;20485;-93
2022/05/03 03:16:30;;;;;;;6.30;4.60;;;14.90;99.90;;;;;;5096352;28;20414;-93
2022/05/03 03:18:58;;;;;;;7.00;5.20;;;14.90;99.90;;;;;;5095979;28;20431;-89
2022/05/03 03:21:31;;;;;;;6.27;5.33;;;14.90;99.90;;;;;;5079024;28;20432;-89
2022/05/03 03:23:59;;;;;;;7.30;5.40;;;14.90;99.90;;;;;;5079361;28;20433;-92
2022/05/03 03:26:29;;;;;;;7.90;5.13;;;14.90;99.90;;;;;;5102362;28;20404;-88
2022/05/03 03:28:58;;;;;;;7.37;5.83;;;14.90;99.90;;;;;;5098766;28;20865;-93
2022/05/03 03:31:25;;;;;;;6.60;5.70;;;14.90;99.90;;;;;;5098336;28;20777;-88
2022/05/03 03:33:53;;;;;;;8.03;5.57;;;15.00;99.90;;;;;;5097659;28;20450;-89
2022/05/03 03:36:22;;;;;;;9.20;5.57;;;15.00;99.90;;;;;;5097885;28;20464;-88
2022/05/03 03:38:48;;;;;;;7.70;6.43;;;15.00;99.90;;;;;;5098228;28;21012;-89
2022/05/03 03:41:14;;;;;;;6.47;4.97;;;15.00;99.90;;;;;;5098528;28;20416;-89
2022/05/03 03:43:40;;;;;;;5.73;4.97;;;15.00;99.90;;;;;;5098197;28;20425;-93
2022/05/03 03:46:09;;;;;;;8.70;6.00;;;15.00;99.90;;;;;;5117494;28;20397;-89
2022/05/03 03:48:37;;;;;;;8.90;7.30;;;15.00;99.90;;;;;;5118028;28;20451;-89
2022/05/03 03:51:05;;;;;;;7.27;4.63;;;15.00;99.90;;;;;;5117376;28;20395;-88
2022/05/03 03:53:32;;;;;;;9.43;5.50;;;14.90;99.90;;;;;;5106227;28;20463;-89
2022/05/03 03:56:00;;;;;;;7.07;5.17;;;14.90;99.90;;;;;;5115530;28;20472;-89
2022/05/03 03:58:26;;;;;;;6.30;5.70;;;14.90;99.90;;;;;;5115714;28;20976;-89
2022/05/03 04:00:52;;;;;;;8.27;5.80;;;14.90;99.90;;;;;;5097183;28;20408;-89
2022/05/03 04:03:19;;;;;;;8.23;6.30;;;14.80;99.90;;;;;;5098214;28;20954;-95
2022/05/03 04:05:46;;;;;;;7.00;6.30;;;14.80;99.90;;;;;;5116013;28;20172;-96
2022/05/03 04:08:12;;;;;;;5.97;5.37;;;14.80;99.90;;;;;;5097156;28;20455;-91
2022/05/03 04:10:38;;;;;;;8.50;6.80;;;14.80;99.90;;;;;;5084137;28;20550;-89
2022/05/03 04:13:04;;;;;;;8.03;7.13;;;14.80;99.90;;;;;;5032279;28;20222;-89
2022/05/03 04:15:33;;;;;;;8.37;6.20;;;14.90;99.90;;;;;;5032532;28;20210;-88
2022/05/03 04:17:59;;;;;;;6.30;5.67;;;14.90;99.90;;;;;;5015237;28;21009;-89
2022/05/03 04:20:25;;;;;;;8.77;6.90;;;14.90;99.90;;;;;;5017237;28;20434;-89
2022/05/03 04:22:50;;;;;;;11.53;6.40;;;14.90;99.90;;;;;;5015215;28;20447;-93
2022/05/03 04:25:16;;;;;;;8.23;5.87;;;15.00;99.90;;;;;;5014847;28;20703;-89
2022/05/03 04:27:42;;;;;;;7.33;6.60;;;15.00;99.90;;;;;;5050366;28;20194;-95
2022/05/03 04:30:08;;;;;;;11.80;7.63;;;15.00;99.90;;;;;;5054300;28;20210;-89
2022/05/03 04:32:34;;;;;;;9.87;6.90;;;15.10;99.90;;;;;;5037458;28;20857;-96
2022/05/03 04:35:00;;;;;;;8.40;6.73;;;15.10;99.90;;;;;;5015095;28;20470;-88
2022/05/03 04:37:26;;;;;;;8.33;6.50;;;15.10;99.90;;;;;;5033875;28;20452;-96
2022/05/03 04:39:52;;;;;;;7.70;6.00;;;15.20;99.90;;;;;;5033647;28;20174;-94
2022/05/03 04:42:17;;;;;;;9.20;7.23;;;15.20;99.90;;;;;;5018921;28;20440;-89
2022/05/03 04:44:43;;;;;;;8.30;5.90;;;15.20;99.90;;;;;;5023859;28;20655;-94
2022/05/03 04:47:09;;;;;;;6.90;5.97;;;15.20;99.90;;;;;;5012746;28;20306;-96
2022/05/03 04:49:35;;;;;;;7.10;5.73;;;15.20;99.90;;;;;;5012941;28;20269;-95
2022/05/03 04:52:01;;;;;;;6.83;5.93;;;15.20;99.90;;;;;;5014750;28;20198;-89
2022/05/03 04:54:27;;;;;;;7.90;6.80;;;15.20;99.90;;;;;;5033430;28;20462;-95
2022/05/03 04:57:01;;;;;;;11.67;7.87;;;15.20;99.90;;;;;;5031203;28;20201;-96
2022/05/03 04:59:27;;;;;;;9.50;6.83;;;15.20;99.90;;;;;;5013465;28;20418;-90
2022/05/03 05:01:53;;;;;;;8.47;6.80;;;15.20;99.90;;;;;;5031293;28;20443;-90
2022/05/03 05:04:18;;;;;;;11.50;7.07;;;15.20;99.90;;;;;;5016558;28;20451;-90
2022/05/03 05:06:44;;;;;;;14.23;6.93;;;15.20;99.90;;;;;;5078376;27;20558;-89
2022/05/03 05:09:10;;;;;;;9.10;6.80;;;15.30;99.90;;;;;;5041236;27;20183;-96
2022/05/03 05:11:36;;;;;;;11.27;6.87;;;15.30;99.90;;;;;;5108346;28;20322;-90
2022/05/03 05:14:02;;;;;;;6.63;5.93;;;15.30;99.90;;;;;;5100927;28;20446;-96
2022/05/03 05:16:27;;;;;;;6.87;5.63;;;15.30;99.90;;;;;;5106407;28;20184;-96
2022/05/03 05:18:53;;;;;;;7.57;6.20;;;15.40;99.90;;;;;;5120544;28;20540;-96
2022/05/03 05:21:19;;;;;;;6.17;5.60;;;15.40;99.90;;;;;;5101680;28;20171;-94
2022/05/03 05:23:44;;;;;;;6.73;5.80;;;15.40;99.90;;;;;;5120764;28;20267;-89
2022/05/03 05:26:11;;;;;;;6.37;5.60;;;15.40;99.90;;;;;;5097772;28;20172;-95
2022/05/03 05:28:37;;;;;;;8.40;6.10;;;15.50;99.90;;;;;;5079730;28;20228;-89
2022/05/03 05:31:02;;;;;;;7.30;6.00;;;15.50;99.90;;;;;;5114247;28;20821;-89
2022/05/03 05:33:28;;;;;;;33.67;16.80;;;15.50;99.90;;;;;;5109310;28;20238;-96
2022/05/03 05:35:54;;;;;;;43.40;26.40;;;15.50;99.90;;;;;;5082872;28;20275;-89
2022/05/03 05:38:20;;;;;;;8.80;6.60;;;15.50;99.90;;;;;;5118326;28;20456;-95
2022/05/03 05:40:47;;;;;;;8.20;6.77;;;15.50;99.90;;;;;;5099744;28;20183;-96
2022/05/03 05:43:14;;;;;;;7.33;5.97;;;15.50;99.90;;;;;;5103327;28;20471;-94
2022/05/03 05:45:40;;;;;;;8.77;6.57;;;15.60;99.90;;;;;;5109325;28;20416;-89
2022/05/03 05:48:08;;;;;;;7.50;6.40;;;15.60;99.90;;;;;;5097618;28;20478;-88
2022/05/03 05:50:34;;;;;;;8.07;5.20;;;15.70;99.90;;;;;;5097933;28;20416;-88
2022/05/03 05:55:45;;;;;;;7.70;5.80;;;15.70;99.90;;;;;;5118288;28;20467;-95
2022/05/03 05:58:11;;;;;;;7.07;5.30;;;15.80;99.90;;;;;;5095183;27;20455;-94
2022/05/03 06:00:37;;;;;;;6.57;5.50;;;15.80;99.90;;;;;;5115086;28;20786;-93
2022/05/03 06:03:16;;;;;;;9.50;5.80;;;15.90;99.90;;;;;;5101760;28;20688;-93
2022/05/03 06:05:42;;;;;;;6.33;5.30;;;15.90;99.90;;;;;;5095657;28;20426;-96
2022/05/03 06:08:09;;;;;;;5.63;5.13;;;15.90;99.90;;;;;;5098469;28;20468;-89
2022/05/03 06:10:35;;;;;;;5.60;4.50;;;16.00;99.90;;;;;;5097858;28;20463;-95
2022/05/03 06:13:04;;;;;;;6.13;4.63;;;16.00;99.90;;;;;;5092231;28;20451;-88
2022/05/03 06:15:30;;;;;;;6.07;5.47;;;16.00;99.90;;;;;;5097769;28;20460;-88
2022/05/03 06:17:55;;;;;;;7.00;6.00;;;16.10;99.90;;;;;;5105591;28;20444;-96
2022/05/03 06:20:27;;;;;;;5.80;5.13;;;16.10;99.90;;;;;;5092284;28;20938;-88
2022/05/03 06:22:53;;;;;;;6.93;4.93;;;16.20;99.90;;;;;;5109170;28;20215;-88
2022/05/03 06:25:19;;;;;;;5.97;5.37;;;16.20;99.90;;;;;;5065817;28;20428;-88
2022/05/03 06:27:44;;;;;;;6.93;5.53;;;16.30;99.90;;;;;;5053695;28;20208;-95
2022/05/03 06:30:11;;;;;;;6.10;5.00;;;16.30;99.90;;;;;;5101995;28;20408;-93
2022/05/03 06:32:37;;;;;;;6.07;4.77;;;16.40;99.90;;;;;;5120148;28;20291;-96
2022/05/03 06:35:04;;;;;;;5.73;5.13;;;16.40;99.90;;;;;;5092375;28;20493;-95
2022/05/03 06:37:29;;;;;;;7.00;5.80;;;16.40;99.90;;;;;;5114991;28;20444;-95
2022/05/03 06:39:55;;;;;;;7.00;6.10;;;16.50;99.90;;;;;;5096732;28;20408;-88
2022/05/03 06:42:21;;;;;;;7.10;5.23;;;16.50;99.90;;;;;;5095794;28;20211;-88
2022/05/03 06:44:47;;;;;;;7.87;4.77;;;16.60;99.90;;;;;;5110743;28;20191;-88
2022/05/03 06:47:13;;;;;;;5.53;4.97;;;16.70;99.90;;;;;;5095368;28;20485;-88
2022/05/03 06:49:39;;;;;;;6.97;4.63;;;16.80;99.90;;;;;;5104207;28;20514;-94
2022/05/03 06:52:05;;;;;;;4.40;4.00;;;16.80;99.90;;;;;;5097849;28;20199;-94
2022/05/03 06:54:30;;;;;;;5.53;3.90;;;17.00;99.90;;;;;;5096401;28;20203;-89
2022/05/03 06:56:59;;;;;;;12.50;3.93;;;17.10;99.90;;;;;;5095343;28;20224;-89
2022/05/03 06:59:25;;;;;;;5.63;4.80;;;17.20;99.90;;;;;;5113419;28;20198;-89
2022/05/03 07:01:53;;;;;;;5.00;4.53;;;17.20;99.90;;;;;;5094722;28;20428;-96
2022/05/03 07:04:22;;;;;;;6.30;4.30;;;17.40;99.90;;;;;;5097233;28;20167;-95
2022/05/03 07:06:48;;;;;;;5.57;4.20;;;17.50;99.90;;;;;;5097911;28;20464;-96
2022/05/03 07:09:14;;;;;;;4.40;3.70;;;17.60;99.90;;;;;;5081560;28;20435;-94
2022/05/03 07:11:40;;;;;;;6.47;4.50;;;17.70;99.90;;;;;;5025252;28;20663;-94
2022/05/03 07:14:06;;;;;;;4.20;3.13;;;17.80;99.90;;;;;;4999761;28;20174;-95
2022/05/03 07:16:32;;;;;;;3.63;3.30;;;17.90;99.90;;;;;;5010985;28;20983;-95
2022/05/03 07:24:29;;;;;;;4.40;2.60;;;18.30;99.90;;;;;;5030716;27;20444;-89
2022/05/03 07:26:56;;;;;;;3.60;2.90;;;18.40;99.90;;;;;;5069201;28;21008;-96
2022/05/03 07:29:21;;;;;;;3.17;2.87;;;18.60;99.90;;;;;;5022437;28;20249;-94
2022/05/03 07:31:47;;;;;;;2.30;2.10;;;18.70;99.90;;;;;;5039667;27;20448;-95
2022/05/03 07:34:13;;;;;;;3.87;2.60;;;18.80;99.90;;;;;;5020506;27;20557;-89
2022/05/03 07:36:41;;;;;;;2.63;2.40;;;18.90;99.90;;;;;;4994573;28;20304;-96
2022/05/03 07:39:09;;;;;;;10.23;3.43;;;19.10;99.90;;;;;;5023398;28;20581;-95
2022/05/03 07:41:34;;;;;;;4.80;3.10;;;19.20;99.90;;;;;;5050752;27;20789;-95
2022/05/03 07:44:00;;;;;;;5.53;3.27;;;19.30;99.90;;;;;;5030504;28;20457;-94
2022/05/03 07:46:29;;;;;;;2.70;2.40;;;19.40;99.90;;;;;;5013711;28;20447;-95
2022/05/03 07:48:56;;;;;;;2.20;2.00;;;19.50;99.90;;;;;;5046718;27;20224;-95
2022/05/03 07:51:21;;;;;;;3.10;2.40;;;19.60;99.90;;;;;;5061672;28;20453;-95
2022/05/03 07:53:47;;;;;;;4.57;2.87;;;19.70;99.90;;;;;;5014047;28;20492;-93
2022/05/03 07:56:13;;;;;;;3.20;2.60;;;19.80;99.90;;;;;;5016685;28;20219;-95
2022/05/03 07:58:39;;;;;;;3.57;3.30;;;19.90;99.00;;;;;;5019914;28;20457;-95
2022/05/03 08:01:05;;;;;;;3.63;2.43;;;20.00;98.30;;;;;;5016655;27;20417;-96
2022/05/03 08:03:31;;;;;;;3.00;2.40;;;20.10;97.80;;;;;;5031794;28;20462;-96
2022/05/03 08:05:57;;;;;;;3.30;3.00;;;20.10;97.30;;;;;;5009372;27;20465;-89
2022/05/03 08:08:23;;;;;;;3.67;3.37;;;20.20;96.50;;;;;;5023071;28;20454;-96
2022/05/03 08:10:49;;;;;;;4.37;3.30;;;20.20;95.70;;;;;;5033491;28;20467;-95
2022/05/03 08:13:15;;;;;;;4.17;3.10;;;20.20;95.20;;;;;;5045941;28;20206;-88
2022/05/03 08:15:44;;;;;;;3.00;2.50;;;20.20;95.10;;;;;;5106109;28;20465;-88
2022/05/03 08:18:10;;;;;;;3.50;2.43;;;20.10;95.40;;;;;;5044225;28;20304;-89
2022/05/03 08:20:36;;;;;;;2.67;2.47;;;20.10;96.20;;;;;;5009517;28;20493;-89
2022/05/03 08:23:02;;;;;;;1.93;1.83;;;20.10;95.20;;;;;;5008195;28;20899;-88
2022/05/03 08:25:28;;;;;;;2.63;2.30;;;20.00;95.00;;;;;;5010284;28;20489;-89
2022/05/03 08:27:55;;;;;;;3.63;3.30;;;20.00;94.90;;;;;;5011701;28;20454;-95
2022/05/03 08:30:21;;;;;;;3.37;2.43;;;19.90;95.00;;;;;;5079466;27;20433;-88
2022/05/03 08:32:47;;;;;;;254.83;112.87;;;19.80;95.00;;;;;;5113468;28;20446;-96
2022/05/03 08:35:12;;;;;;;13.13;9.30;;;19.80;95.50;;;;;;5132413;27;20578;-95
2022/05/03 08:43:07;;;;;;;3.43;2.57;;;19.80;94.40;;;;;;5134418;27;20772;-89
2022/05/03 08:45:32;;;;;;;1.73;1.63;;;19.80;95.90;;;;;;5114419;28;20413;-89
2022/05/03 08:48:03;;;;;;;4.53;2.30;;;19.80;93.30;;;;;;5060469;28;20458;-88
2022/05/03 08:50:31;;;;;;;2.40;2.20;;;19.70;92.90;;;;;;5044646;28;20189;-95
2022/05/03 08:53:04;;;;;;;3.33;2.63;;;19.70;93.60;;;;;;5003162;28;20461;-94
2022/05/03 08:55:30;;;;;;;3.40;2.30;;;19.70;93.50;;;;;;5039376;28;20459;-88
2022/05/03 08:57:56;;;;;;;3.20;2.90;;;19.70;94.10;;;;;;5113071;28;20804;-95
2022/05/03 09:00:24;;;;;;;3.30;2.17;;;19.60;94.00;;;;;;5025374;28;20438;-88
2022/05/03 09:02:54;;;;;;;9.63;4.83;;;19.60;94.30;;;;;;5009129;28;20437;-88
2022/05/03 09:05:22;;;;;;;2.50;2.30;;;19.60;93.30;;;;;;5027661;28;20462;-88
2022/05/03 09:07:49;;;;;;;2.63;2.43;;;19.50;93.70;;;;;;5009283;28;20455;-88
2022/05/03 09:10:38;;;;;;;5.47;2.13;;;19.60;93.30;;;;;;5022631;28;20568;-89
2022/05/03 09:13:18;;;;;;;2.70;2.20;;;19.50;93.30;;;;;;5090890;28;20443;-95
2022/05/03 09:15:46;;;;;;;3.87;2.30;;;19.50;93.90;;;;;;5099139;28;20473;-96
2022/05/03 09:18:29;;;;;;;2.50;2.10;;;19.50;94.50;;;;;;5123261;28;20452;-94
2022/05/03 09:23:51;;;;;;;1.90;1.80;;;19.50;93.30;;;;;;5095821;28;20455;-94
2022/05/03 09:26:28;;;;;;;2.83;2.53;;;19.50;93.00;;;;;;5095587;28;20411;-96
2022/05/03 09:28:58;;;;;;;3.80;2.10;;;19.50;93.70;;;;;;5103876;28;20433;-95
2022/05/03 09:31:46;;;;;;;1.77;1.63;;;19.60;93.20;;;;;;5104734;28;20509;-87
2022/05/03 09:34:19;;;;;;;3.30;2.73;;;19.50;93.80;;;;;;5075597;28;20431;-87
2022/05/03 09:36:51;;;;;;;1.90;1.80;;;19.60;94.00;;;;;;5091134;28;20573;-96
2022/05/03 09:39:26;;;;;;;2.37;2.17;;;19.60;91.60;;;;;;5074630;28;20430;-96
2022/05/03 09:42:13;;;;;;;2.50;2.07;;;19.60;92.70;;;;;;5076655;28;20993;-93
2022/05/03 09:44:52;;;;;;;3.10;2.00;;;19.70;92.90;;;;;;5109712;28;20578;-88
2022/05/03 09:47:21;;;;;;;2.70;2.50;;;19.70;92.20;;;;;;5111120;28;20462;-95
2022/05/03 09:49:47;;;;;;;2.27;2.07;;;19.80;92.00;;;;;;5106991;28;20516;-95
2022/05/03 09:52:29;;;;;;;2.50;2.30;;;19.80;91.40;;;;;;5095892;28;20508;-93
2022/05/03 09:55:05;;;;;;;2.30;2.10;;;19.80;91.10;;;;;;5114103;28;20249;-95
2022/05/03 09:57:33;;;;;;;2.70;2.07;;;19.80;91.10;;;;;;5092415;28;20477;-96
2022/05/03 10:00:00;;;;;;;3.40;2.13;;;19.80;91.50;;;;;;5096847;28;20446;-88
2022/05/03 10:02:28;;;;;;;2.50;2.10;;;19.80;91.30;;;;;;5112312;28;20450;-96
2022/05/03 10:04:58;;;;;;;3.37;2.80;;;19.90;91.70;;;;;;5096347;28;20426;-95
2022/05/03 10:07:26;;;;;;;3.20;1.63;;;19.90;91.50;;;;;;5098117;28;20491;-89
2022/05/03 10:09:52;;;;;;;3.53;2.97;;;19.90;91.40;;;;;;5124218;28;20460;-96
2022/05/03 10:12:19;;;;;;;2.50;2.30;;;19.90;91.30;;;;;;5033434;28;20471;-96
2022/05/03 10:14:47;;;;;;;4.90;2.97;;;19.90;91.80;;;;;;5010562;28;20489;-95
2022/05/03 10:20:40;;;;;;;2.97;2.67;;;20.00;92.10;;;;;;5078883;27;20453;-95
2022/05/03 10:23:30;;;;;;;2.90;2.27;;;20.10;91.50;;;;;;5025352;27;20928;-89
2022/05/03 10:26:06;;;;;;;3.40;3.10;;;20.10;91.70;;;;;;5022443;28;20436;-95
2022/05/03 10:28:54;;;;;;;3.37;2.20;;;20.20;91.80;;;;;;5009378;28;20869;-96
2022/05/03 10:31:23;;;;;;;3.60;3.00;;;20.20;91.50;;;;;;5011027;28;20525;-96
2022/05/03 10:33:48;;;;;;;4.23;3.07;;;20.30;91.60;;;;;;5013140;28;20438;-89
2022/05/03 10:36:33;;;;;;;2.70;2.50;;;20.30;91.90;;;;;;5027632;28;20486;-96
2022/05/03 10:39:26;;;;;;;2.90;2.53;;;20.30;91.40;;;;;;5026087;27;20439;-88
2022/05/03 10:41:57;;;;;;;2.77;2.57;;;20.30;91.20;;;;;;5011823;27;20496;-88
2022/05/03 10:44:38;;;;;;;3.37;2.37;;;20.40;91.10;;;;;;5072972;27;20431;-95
2022/05/03 10:47:04;;;;;;;3.30;2.40;;;20.50;90.80;;;;;;5039730;27;20455;-88
2022/05/03 10:49:30;;;;;;;2.70;2.50;;;20.50;91.00;;;;;;5042761;27;20487;-89
2022/05/03 10:51:57;;;;;;;3.17;2.70;;;20.50;91.20;;;;;;5059861;27;20824;-88
2022/05/03 10:54:23;;;;;;;4.93;3.00;;;20.50;91.50;;;;;;5011981;28;20430;-94
2022/05/03 10:57:04;;;;;;;2.50;2.30;;;20.50;91.30;;;;;;5026136;28;20467;-87
2022/05/03 10:59:49;;;;;;;7.30;2.70;;;20.60;91.20;;;;;;5011824;28;20277;-95
2022/05/03 11:02:15;;;;;;;2.87;2.67;;;20.60;91.30;;;;;;5030061;28;20548;-95
2022/05/03 11:05:16;;;;;;;2.60;2.40;;;20.70;90.70;;;;;;5022474;28;20435;-88
2022/05/03 11:08:18;;;;;;;3.00;2.03;;;20.70;91.20;;;;;;5021577;27;20451;-96
2022/05/03 11:10:45;;;;;;;2.67;2.43;;;20.70;91.80;;;;;;5006149;28;20475;-89
2022/05/03 11:13:42;;;;;;;5.13;3.00;;;20.80;91.10;;;;;;5009574;28;20463;-88
2022/05/03 11:16:25;;;;;;;3.77;2.67;;;20.90;90.80;;;;;;5007618;28;20481;-87
2022/05/03 11:18:52;;;;;;;2.93;2.63;;;20.90;90.20;;;;;;4995633;28;20800;-95
2022/05/03 11:21:17;;;;;;;2.60;2.40;;;20.90;90.60;;;;;;5022921;27;20453;-87
2022/05/03 11:23:54;;;;;;;2.50;2.30;;;21.00;90.20;;;;;;5057367;28;20440;-91
2022/05/03 11:26:23;;;;;;;2.60;2.40;;;21.10;91.00;;;;;;5058067;27;20197;-87
2022/05/03 11:28:51;;;;;;;2.40;2.20;;;21.10;90.30;;;;;;5038944;27;20456;-95
2022/05/03 11:31:19;;;;;;;3.40;2.70;;;21.20;90.70;;;;;;5059901;28;20459;-95
2022/05/03 11:33:53;;;;;;;2.70;2.50;;;21.30;90.00;;;;;;5030874;28;20534;-88
2022/05/03 11:36:23;;;;;;;3.07;2.10;;;21.30;88.80;;;;;;5001194;28;20516;-95
2022/05/03 11:38:50;;;;;;;4.13;2.70;;;21.30;89.50;;;;;;5000782;28;20435;-88
2022/05/03 11:41:37;;;;;;;2.47;2.20;;;21.40;89.90;;;;;;5050946;28;20791;-96
2022/05/03 11:44:03;;;;;;;2.60;2.40;;;21.40;88.80;;;;;;5008866;28;20458;-89
2022/05/03 11:46:30;;;;;;;3.30;2.43;;;21.40;90.00;;;;;;5060585;27;20431;-90
2022/05/03 11:49:01;;;;;;;4.07;2.83;;;21.50;89.80;;;;;;5076659;27;20444;-89
2022/05/03 11:57:35;;;;;;;2.50;2.30;;;21.60;89.10;;;;;;5035095;28;20454;-88
2022/05/03 12:00:05;;;;;;;3.10;2.70;;;21.70;87.90;;;;;;5013573;28;20458;-95
2022/05/03 12:02:36;;;;;;;3.03;2.73;;;21.80;86.50;;;;;;5027678;28;20455;-96
2022/05/03 12:05:06;;;;;;;3.53;2.50;;;21.80;86.40;;;;;;5013015;28;20472;-95
2022/05/03 12:07:39;;;;;;;2.13;2.03;;;21.90;89.30;;;;;;5012712;28;20432;-88
2022/05/03 12:10:24;;;;;;;2.63;2.43;;;21.90;87.50;;;;;;5006256;28;20686;-95
2022/05/03 12:13:17;;;;;;;2.07;1.87;;;22.00;86.90;;;;;;5013809;28;20963;-89
2022/05/03 12:15:46;;;;;;;3.30;2.17;;;22.00;86.30;;;;;;5017826;28;20476;-96
2022/05/03 12:18:28;;;;;;;3.53;2.80;;;22.00;85.80;;;;;;5031198;28;20456;-89
2022/05/03 12:20:59;;;;;;;2.80;2.43;;;22.00;88.10;;;;;;5034149;27;20431;-89
2022/05/03 12:23:45;;;;;;;3.20;2.77;;;22.00;87.80;;;;;;5033875;28;20542;-90
2022/05/03 12:26:20;;;;;;;3.00;2.33;;;22.00;85.50;;;;;;5023524;28;20761;-89
2022/05/03 12:28:54;;;;;;;3.80;2.43;;;22.00;85.80;;;;;;5028932;28;20846;-96
2022/05/03 12:31:22;;;;;;;3.40;2.93;;;22.00;86.90;;;;;;5017538;27;20442;-90
2022/05/03 12:33:57;;;;;;;2.20;1.97;;;22.10;87.50;;;;;;5037087;28;20440;-88
2022/05/03 12:36:39;;;;;;;3.23;2.40;;;22.00;87.00;;;;;;5018340;28;20846;-94
2022/05/03 12:39:13;;;;;;;2.57;2.27;;;22.10;89.10;;;;;;5011020;28;20504;-88
2022/05/03 12:41:45;;;;;;;2.60;2.13;;;22.20;87.00;;;;;;5003849;28;20441;-95
2022/05/03 12:44:15;;;;;;;4.43;2.40;;;22.20;87.30;;;;;;4987253;28;20544;-88
2022/05/03 12:46:42;;;;;;;3.60;2.60;;;22.20;86.30;;;;;;4986471;28;20544;-88
2022/05/03 12:49:11;;;;;;;2.70;2.50;;;22.20;86.10;;;;;;5003301;28;20436;-87
2022/05/03 12:51:42;;;;;;;2.67;2.47;;;22.20;84.90;;;;;;5002656;28;20501;-95
2022/05/03 12:54:10;;;;;;;2.90;2.60;;;22.10;86.00;;;;;;5008474;28;20424;-88
2022/05/03 12:59:22;;;;;;;2.30;2.10;;;22.20;85.80;;;;;;5022771;28;20438;-88
2022/05/03 13:01:50;;;;;;;2.93;2.50;;;22.20;87.50;;;;;;5035641;28;20523;-89
2022/05/03 13:04:17;;;;;;;3.63;2.67;;;22.30;85.60;;;;;;5079993;28;20426;-88
2022/05/03 13:06:44;;;;;;;3.33;2.53;;;22.40;85.10;;;;;;5008079;28;20520;-96
2022/05/03 13:09:10;;;;;;;4.00;1.70;;;22.40;84.40;;;;;;5009825;28;20807;-96
2022/05/03 13:11:38;;;;;;;3.07;2.80;;;22.40;84.40;;;;;;5012676;28;20582;-95
2022/05/03 13:14:06;;;;;;;3.33;2.53;;;22.40;84.40;;;;;;5012730;28;20458;-95
2022/05/03 13:16:32;;;;;;;2.43;2.23;;;22.30;85.50;;;;;;5033482;28;21047;-89
2022/05/03 13:18:57;;;;;;;3.57;2.70;;;22.40;86.60;;;;;;5005818;28;20432;-89
2022/05/03 13:21:23;;;;;;;3.43;2.73;;;22.40;84.60;;;;;;5027343;28;20434;-96
2022/05/03 13:23:49;;;;;;;2.83;2.40;;;22.50;83.90;;;;;;5027008;28;20640;-93
2022/05/03 13:26:15;;;;;;;3.23;2.87;;;22.50;84.20;;;;;;5026982;27;20277;-96
2022/05/03 13:28:41;;;;;;;2.43;2.23;;;22.50;84.30;;;;;;5065411;27;20537;-89
2022/05/03 13:31:07;;;;;;;5.43;2.40;;;22.60;83.60;;;;;;5044783;28;20700;-89
2022/05/03 13:33:45;;;;;;;2.63;2.20;;;22.60;83.80;;;;;;5016164;28;20466;-89
2022/05/03 13:41:42;;;;;;;3.10;2.77;;;22.60;83.00;;;;;;5057037;27;21018;-96
2022/05/03 13:44:09;;;;;;;2.93;2.00;;;22.60;83.80;;;;;;5077571;27;20435;-89
2022/05/03 13:46:35;;;;;;;3.10;2.80;;;22.60;81.80;;;;;;5045678;27;20431;-88
2022/05/03 13:49:01;;;;;;;3.50;3.20;;;22.60;83.50;;;;;;5078512;27;20436;-87
2022/05/03 13:51:29;;;;;;;2.50;2.30;;;22.70;83.30;;;;;;5031452;27;20228;-96
2022/05/03 13:53:55;;;;;;;2.77;2.53;;;22.70;82.60;;;;;;5034576;28;20190;-87